Versailles, Ohio
Current Conditions -  °F | °C
As of 6:55 AM on Thursday 23 Oct 2014 (Local Time) from KVES Reporting Station
Haze Haze  
Wind Chill: 34°   Ceiling: 700
Heat Index: 34°   Visibility: 1.5mi
Dew Point: 34°   Wind: 0mph
Humidity: 100%   Direction: NA
Pressure: 30.25"   Gusts: NA
Location:  40.22°N, 84.48°W
Report Text: KVES 231055Z AUTO 00000KT 1 1/2SM BR VV007 01/01 A3025 RMK AO2
Loading
Personal Weather Stations






























Interactive Weather Map
Tropical Storm Tracking
New forecast layout! Learn more

10-Day Weather Forecast

Advertisements
Track Severe Weather on mobile